Time;durP1;ratioP1;P1;durP2;ratioP2;P2;SDS_P1;SDS_P2;PMS_P1;PMS_P2;Temp;Humidity;BMP_temperature;BMP_pressure;BME280_temperature;BME280_humidity;BME280_pressure;Samples;Min_cycle;Max_cycle;Signal;HPM_P1;HPM_P2
2023/04/04 00:01:40;;;;;;;4.47;2.13;;;;;;;;;;5049075;28;20108;-76
2023/04/04 00:04:09;;;;;;;4.68;2.15;;;;;;;;;;5049198;28;20410;-77
2023/04/04 00:06:43;;;;;;;12.05;1.77;;;;;;;;;;5050965;28;20578;-77
2023/04/04 00:09:09;;;;;;;5.13;1.85;;;;;;;;;;5048023;28;20037;-77
2023/04/04 00:11:38;;;;;;;7.78;2.05;;;;;;;;;;5048800;28;20036;-77
2023/04/04 00:14:04;;;;;;;6.72;2.05;;;;;;;;;;5044589;28;20093;-76
2023/04/04 00:16:31;;;;;;;5.35;2.40;;;;;;;;;;5046025;28;20024;-74
2023/04/04 00:19:03;;;;;;;4.55;1.90;;;;;;;;;;5047104;28;20465;-74
2023/04/04 00:21:29;;;;;;;4.63;2.30;;;;;;;;;;5063385;28;20052;-76
2023/04/04 00:23:56;;;;;;;6.18;2.20;;;;;;;;;;5046754;28;20020;-76
2023/04/04 00:26:22;;;;;;;3.15;1.90;;;;;;;;;;5034487;28;20132;-74
2023/04/04 00:28:50;;;;;;;5.93;2.30;;;;;;;;;;5041693;28;20043;-74
2023/04/04 00:31:16;;;;;;;3.40;1.75;;;;;;;;;;5043415;28;20111;-74
2023/04/04 00:33:42;;;;;;;6.15;2.08;;;;;;;;;;5048711;28;20043;-74
2023/04/04 00:36:09;;;;;;;3.80;2.35;;;;;;;;;;5047555;28;20073;-75
2023/04/04 00:38:43;;;;;;;7.25;2.70;;;;;;;;;;5047005;28;20074;-75
2023/04/04 00:41:09;;;;;;;3.78;2.30;;;;;;;;;;5047381;28;20049;-73
2023/04/04 00:43:58;;;;;;;7.57;2.40;;;;;;;;;;5047412;28;20029;-74
2023/04/04 00:46:26;;;;;;;2.92;1.90;;;;;;;;;;5038335;28;20052;-73
2023/04/04 00:48:53;;;;;;;4.82;2.75;;;;;;;;;;5025103;28;20025;-74
2023/04/04 00:51:19;;;;;;;4.30;2.47;;;;;;;;;;5024314;28;20056;-74
2023/04/04 00:53:46;;;;;;;5.97;2.30;;;;;;;;;;5040828;28;20029;-74
2023/04/04 00:56:15;;;;;;;3.33;2.03;;;;;;;;;;5042906;28;20052;-74
2023/04/04 00:58:47;;;;;;;8.18;2.67;;;;;;;;;;5026309;28;20041;-74
2023/04/04 01:01:19;;;;;;;5.55;2.33;;;;;;;;;;5019792;28;20466;-74
2023/04/04 01:03:45;;;;;;;7.75;2.42;;;;;;;;;;5002433;28;20057;-74
2023/04/04 01:06:11;;;;;;;6.53;2.42;;;;;;;;;;5022087;28;20124;-76
2023/04/04 01:08:38;;;;;;;4.20;2.35;;;;;;;;;;5013048;28;20022;-74
2023/04/04 01:11:05;;;;;;;3.53;1.92;;;;;;;;;;5036586;28;20163;-74
2023/04/04 01:13:31;;;;;;;7.30;2.63;;;;;;;;;;5039007;28;20037;-74
2023/04/04 01:15:57;;;;;;;6.45;2.35;;;;;;;;;;5040869;28;20112;-74
2023/04/04 01:18:23;;;;;;;8.25;2.80;;;;;;;;;;5014089;28;20083;-74
2023/04/04 01:20:52;;;;;;;4.50;2.25;;;;;;;;;;5005741;28;20033;-75
2023/04/04 01:23:19;;;;;;;6.25;2.50;;;;;;;;;;5047236;28;20033;-72
2023/04/04 01:25:45;;;;;;;4.95;2.47;;;;;;;;;;5024715;28;20140;-72
2023/04/04 01:28:14;;;;;;;7.63;2.97;;;;;;;;;;5010020;28;20029;-74
2023/04/04 01:30:48;;;;;;;5.60;2.85;;;;;;;;;;5010211;28;20075;-74
2023/04/04 01:33:28;;;;;;;6.15;3.28;;;;;;;;;;5023852;28;20069;-74
2023/04/04 01:36:14;;;;;;;;;;;;;;;;;;;;;
2023/04/04 01:39:09;;;;;;;8.20;2.63;;;;;;;;;;5023955;28;20090;-74
2023/04/04 01:41:39;;;;;;;5.65;2.80;;;;;;;;;;5005873;28;20042;-74
2023/04/04 01:44:11;;;;;;;6.47;3.00;;;;;;;;;;5006314;28;20037;-74
2023/04/04 01:46:37;;;;;;;8.63;3.23;;;;;;;;;;5039748;28;20045;-74
2023/04/04 01:49:03;;;;;;;8.95;2.97;;;;;;;;;;5045032;28;20485;-74
2023/04/04 01:51:30;;;;;;;8.10;2.60;;;;;;;;;;5043996;28;20063;-74
2023/04/04 01:53:57;;;;;;;6.68;2.60;;;;;;;;;;5043939;28;20485;-75
2023/04/04 01:56:23;;;;;;;5.38;3.08;;;;;;;;;;5042469;28;20039;-74
2023/04/04 01:58:51;;;;;;;8.05;2.45;;;;;;;;;;5044786;28;20033;-74
2023/04/04 02:01:17;;;;;;;6.32;3.22;;;;;;;;;;5027076;28;20110;-74
2023/04/04 02:03:43;;;;;;;4.40;2.63;;;;;;;;;;5046258;28;20104;-74
2023/04/04 02:06:13;;;;;;;7.03;3.55;;;;;;;;;;5043398;28;20036;-75
2023/04/04 02:08:47;;;;;;;4.22;2.70;;;;;;;;;;5044014;28;20029;-75
2023/04/04 02:11:21;;;;;;;5.97;2.85;;;;;;;;;;5040303;28;20021;-75
2023/04/04 02:13:47;;;;;;;6.90;3.38;;;;;;;;;;5043786;28;20107;-74
2023/04/04 02:16:14;;;;;;;7.68;3.03;;;;;;;;;;5044218;28;20037;-74
2023/04/04 02:18:40;;;;;;;6.38;3.03;;;;;;;;;;5044583;28;20025;-74
2023/04/04 02:21:09;;;;;;;15.05;3.50;;;;;;;;;;5043792;28;20057;-75
2023/04/04 02:23:35;;;;;;;5.13;3.10;;;;;;;;;;5041810;28;20053;-74
2023/04/04 02:26:01;;;;;;;6.50;3.05;;;;;;;;;;5029574;28;20116;-74
2023/04/04 02:28:30;;;;;;;7.22;3.78;;;;;;;;;;5031965;28;20027;-74
2023/04/04 02:31:01;;;;;;;9.13;2.70;;;;;;;;;;5050939;28;20032;-75
2023/04/04 02:33:27;;;;;;;7.70;3.13;;;;;;;;;;5045170;28;20206;-74
2023/04/04 02:35:57;;;;;;;5.85;3.00;;;;;;;;;;5047569;28;20032;-73
2023/04/04 02:38:23;;;;;;;5.22;2.95;;;;;;;;;;5047912;28;20017;-74
2023/04/04 02:40:49;;;;;;;4.90;3.17;;;;;;;;;;5029395;28;20037;-74
2023/04/04 02:43:15;;;;;;;7.15;3.13;;;;;;;;;;5051670;28;20061;-74
2023/04/04 02:45:42;;;;;;;10.98;3.58;;;;;;;;;;5046886;28;20053;-75
2023/04/04 02:48:09;;;;;;;7.25;3.15;;;;;;;;;;5047433;28;20119;-75
2023/04/04 02:50:36;;;;;;;5.13;3.28;;;;;;;;;;5046087;28;20029;-74
2023/04/04 02:53:03;;;;;;;4.78;3.05;;;;;;;;;;5044815;28;20029;-74
2023/04/04 02:55:29;;;;;;;6.45;3.13;;;;;;;;;;5065170;28;20032;-74
2023/04/04 02:57:56;;;;;;;4.60;3.08;;;;;;;;;;5047919;28;20060;-74
2023/04/04 03:00:26;;;;;;;7.05;3.88;;;;;;;;;;5046621;28;20055;-74
2023/04/04 03:02:55;;;;;;;12.30;3.55;;;;;;;;;;5046661;28;20041;-73
2023/04/04 03:05:28;;;;;;;6.82;3.70;;;;;;;;;;5043852;28;20106;-74
2023/04/04 03:08:04;;;;;;;7.85;4.47;;;;;;;;;;5046116;28;20040;-75
2023/04/04 03:11:09;;;;;;;6.95;3.22;;;;;;;;;;5039516;28;20037;-75
2023/04/04 03:16:48;;;;;;;7.43;4.18;;;;;;;;;;5028760;28;20037;-74
2023/04/04 03:19:16;;;;;;;10.15;3.92;;;;;;;;;;5043440;28;20056;-74
2023/04/04 03:21:48;;;;;;;6.35;3.30;;;;;;;;;;5047387;28;20056;-74
2023/04/04 03:24:18;;;;;;;5.78;3.35;;;;;;;;;;5046366;28;20037;-74
2023/04/04 03:26:47;;;;;;;5.63;3.08;;;;;;;;;;5048340;28;20021;-76
2023/04/04 03:29:19;;;;;;;5.60;3.63;;;;;;;;;;5028790;28;20047;-77
2023/04/04 03:31:48;;;;;;;7.70;3.60;;;;;;;;;;5044846;28;20071;-74
2023/04/04 03:34:17;;;;;;;12.35;4.57;;;;;;;;;;5043565;28;20378;-76
2023/04/04 03:36:45;;;;;;;8.27;3.67;;;;;;;;;;5044166;28;20033;-77
2023/04/04 03:39:17;;;;;;;6.55;3.58;;;;;;;;;;5046979;28;20071;-74
2023/04/04 03:48:11;;;;;;;12.13;4.18;;;;;;;;;;5051555;28;21508;-74
2023/04/04 03:50:38;;;;;;;7.43;3.88;;;;;;;;;;5034761;28;20127;-73
2023/04/04 03:53:04;;;;;;;6.15;3.60;;;;;;;;;;5038278;28;20090;-77
2023/04/04 03:55:30;;;;;;;7.15;3.58;;;;;;;;;;5046184;28;20028;-74
2023/04/04 03:58:05;;;;;;;7.25;3.20;;;;;;;;;;5060619;28;20032;-75
2023/04/04 04:04:57;;;;;;;;;;;;;;;;;;;;;
2023/04/04 04:07:32;;;;;;;6.97;3.83;;;;;;;;;;5065339;28;20033;-77
2023/04/04 04:10:23;;;;;;;;;;;;;;;;;;;;;
2023/04/04 04:13:13;;;;;;;;;;;;;;;;;;;;;
2023/04/04 04:16:13;;;;;;;;;;;;;;;;;;;;;
2023/04/04 04:18:39;;;;;;;6.78;2.70;;;;;;;;;;5066828;28;20032;-74
2023/04/04 04:21:05;;;;;;;7.05;3.60;;;;;;;;;;5049460;28;20037;-74
2023/04/04 04:23:31;;;;;;;8.55;3.80;;;;;;;;;;5036118;28;20052;-73
2023/04/04 04:25:58;;;;;;;8.48;4.25;;;;;;;;;;5068551;28;20439;-73
2023/04/04 04:28:24;;;;;;;7.45;3.58;;;;;;;;;;5048572;28;20044;-75
2023/04/04 04:30:50;;;;;;;9.98;3.10;;;;;;;;;;5049644;28;20040;-74
2023/04/04 04:33:19;;;;;;;5.82;3.40;;;;;;;;;;5051150;28;20473;-75
2023/04/04 04:35:48;;;;;;;7.82;3.95;;;;;;;;;;5037664;28;20109;-73
2023/04/04 04:38:14;;;;;;;4.95;3.50;;;;;;;;;;5038086;28;20400;-73
2023/04/04 04:41:01;;;;;;;9.80;3.53;;;;;;;;;;5049655;28;20048;-73
2023/04/04 04:43:27;;;;;;;8.90;3.42;;;;;;;;;;5047534;28;20111;-72
2023/04/04 04:45:53;;;;;;;11.95;4.13;;;;;;;;;;5032712;28;20143;-72
2023/04/04 04:48:19;;;;;;;8.35;3.72;;;;;;;;;;5037851;28;20483;-73
2023/04/04 04:50:45;;;;;;;5.63;3.58;;;;;;;;;;5049278;28;20032;-75
2023/04/04 04:53:12;;;;;;;6.45;3.13;;;;;;;;;;5041343;28;20039;-76
2023/04/04 04:55:38;;;;;;;8.27;3.72;;;;;;;;;;5048168;28;20543;-75
2023/04/04 04:58:05;;;;;;;7.45;4.60;;;;;;;;;;5033484;28;20059;-75
2023/04/04 05:00:37;;;;;;;5.63;3.47;;;;;;;;;;5050515;28;20028;-74
2023/04/04 05:03:06;;;;;;;8.30;4.32;;;;;;;;;;5044323;28;20048;-73
2023/04/04 05:05:47;;;;;;;9.68;4.85;;;;;;;;;;5040711;28;20052;-75
2023/04/04 05:08:28;;;;;;;9.32;5.25;;;;;;;;;;5048759;28;20500;-75
2023/04/04 05:10:54;;;;;;;6.72;3.45;;;;;;;;;;5037786;28;20060;-73
2023/04/04 05:13:20;;;;;;;12.85;6.00;;;;;;;;;;5047511;28;20043;-73
2023/04/04 05:15:46;;;;;;;42.92;20.75;;;;;;;;;;5027678;28;20029;-75
2023/04/04 05:18:13;;;;;;;27.42;13.68;;;;;;;;;;5044999;28;20406;-75
2023/04/04 05:20:39;;;;;;;18.88;9.23;;;;;;;;;;5041748;28;20540;-75
2023/04/04 05:23:06;;;;;;;10.63;5.03;;;;;;;;;;5028959;28;20053;-74
2023/04/04 05:25:44;;;;;;;7.25;3.95;;;;;;;;;;5048373;28;20071;-75
2023/04/04 05:28:10;;;;;;;11.02;5.18;;;;;;;;;;5042818;28;20401;-74
2023/04/04 05:30:37;;;;;;;12.65;5.88;;;;;;;;;;5026436;28;20469;-75
2023/04/04 05:33:03;;;;;;;14.23;6.25;;;;;;;;;;5045614;28;20033;-73
2023/04/04 05:35:30;;;;;;;22.42;9.55;;;;;;;;;;5058275;28;20024;-74
2023/04/04 05:37:56;;;;;;;20.27;9.43;;;;;;;;;;5029203;28;20151;-75
2023/04/04 05:40:22;;;;;;;12.15;5.63;;;;;;;;;;5043844;28;20043;-75
2023/04/04 05:42:55;;;;;;;17.30;8.13;;;;;;;;;;5046719;28;20037;-74
2023/04/04 05:45:22;;;;;;;11.85;5.70;;;;;;;;;;5036627;28;20056;-76
2023/04/04 05:47:48;;;;;;;12.68;5.38;;;;;;;;;;5044052;28;20040;-74
2023/04/04 05:50:14;;;;;;;6.45;4.20;;;;;;;;;;5043815;28;20028;-76
2023/04/04 05:52:40;;;;;;;8.13;4.68;;;;;;;;;;5036292;28;20489;-76
2023/04/04 05:55:07;;;;;;;8.85;5.38;;;;;;;;;;5026951;28;21250;-77
2023/04/04 05:57:33;;;;;;;10.60;6.45;;;;;;;;;;5045132;28;20039;-75
2023/04/04 05:59:59;;;;;;;27.23;10.93;;;;;;;;;;5045422;28;20037;-76
2023/04/04 06:02:25;;;;;;;21.45;10.77;;;;;;;;;;5050884;28;20032;-75
2023/04/04 06:04:52;;;;;;;17.05;8.70;;;;;;;;;;5049887;28;20051;-76
2023/04/04 06:07:18;;;;;;;12.13;6.78;;;;;;;;;;5039289;28;20044;-74
2023/04/04 06:09:46;;;;;;;11.57;6.97;;;;;;;;;;5064067;28;20020;-75
2023/04/04 06:12:12;;;;;;;10.35;4.88;;;;;;;;;;5045480;28;20049;-77
2023/04/04 06:14:38;;;;;;;10.27;4.80;;;;;;;;;;5049423;28;20485;-75
2023/04/04 06:17:04;;;;;;;8.70;5.10;;;;;;;;;;5043811;28;20067;-76
2023/04/04 06:19:31;;;;;;;13.18;7.32;;;;;;;;;;5045916;28;20024;-74
2023/04/04 06:21:57;;;;;;;9.98;5.45;;;;;;;;;;5047844;28;20043;-75
2023/04/04 06:24:23;;;;;;;11.25;6.38;;;;;;;;;;5050588;28;20454;-74
2023/04/04 06:26:50;;;;;;;10.52;4.40;;;;;;;;;;5048165;28;20032;-76
2023/04/04 06:29:19;;;;;;;6.97;3.10;;;;;;;;;;5045592;28;20035;-73
2023/04/04 06:31:45;;;;;;;9.13;3.63;;;;;;;;;;5040125;28;20476;-75
2023/04/04 06:34:11;;;;;;;5.78;4.18;;;;;;;;;;5053876;28;20069;-74
2023/04/04 06:36:38;;;;;;;6.28;2.75;;;;;;;;;;5049140;28;20373;-76
2023/04/04 06:39:04;;;;;;;6.60;2.83;;;;;;;;;;5030272;28;20059;-75
2023/04/04 06:41:31;;;;;;;6.85;2.70;;;;;;;;;;5047760;28;20020;-75
2023/04/04 06:43:58;;;;;;;4.72;2.70;;;;;;;;;;5030812;28;20032;-75
2023/04/04 06:46:25;;;;;;;8.32;3.35;;;;;;;;;;5039271;28;20106;-75
2023/04/04 06:48:51;;;;;;;8.60;2.90;;;;;;;;;;5032856;28;20025;-76
2023/04/04 06:51:18;;;;;;;9.75;4.53;;;;;;;;;;5051649;28;20037;-75
2023/04/04 06:53:44;;;;;;;4.53;2.60;;;;;;;;;;5036429;28;20056;-76
2023/04/04 06:56:10;;;;;;;8.98;2.75;;;;;;;;;;5047369;28;20036;-76
2023/04/04 06:58:38;;;;;;;8.35;2.50;;;;;;;;;;5038837;28;20106;-76
2023/04/04 07:01:04;;;;;;;7.82;2.47;;;;;;;;;;5038772;28;20492;-75
2023/04/04 07:03:31;;;;;;;4.60;2.40;;;;;;;;;;5051856;28;20060;-76
2023/04/04 07:05:57;;;;;;;5.22;2.90;;;;;;;;;;5038956;28;20081;-76
2023/04/04 07:08:23;;;;;;;7.28;2.35;;;;;;;;;;5055382;28;20036;-77
2023/04/04 07:10:49;;;;;;;4.85;2.35;;;;;;;;;;5053110;28;20024;-76
2023/04/04 07:13:16;;;;;;;3.38;2.17;;;;;;;;;;5054289;28;20047;-75
2023/04/04 07:15:47;;;;;;;5.03;2.40;;;;;;;;;;5034567;28;20033;-75
2023/04/04 07:18:13;;;;;;;5.70;2.08;;;;;;;;;;5053941;28;20415;-76
2023/04/04 07:20:39;;;;;;;3.10;2.03;;;;;;;;;;5054504;28;20021;-75
2023/04/04 07:23:06;;;;;;;3.90;2.58;;;;;;;;;;5034586;28;20037;-76
2023/04/04 07:25:32;;;;;;;8.63;3.20;;;;;;;;;;5039114;28;20088;-75
2023/04/04 07:27:58;;;;;;;6.00;2.85;;;;;;;;;;5054102;28;20047;-75
2023/04/04 07:30:27;;;;;;;9.35;3.40;;;;;;;;;;5037742;28;20021;-75
2023/04/04 07:32:57;;;;;;;8.50;3.72;;;;;;;;;;5039495;28;20021;-75
2023/04/04 07:35:23;;;;;;;6.32;2.63;;;;;;;;;;5050587;28;20170;-75
2023/04/04 07:37:49;;;;;;;5.13;2.28;;;;;;;;;;5055185;28;20482;-76
2023/04/04 07:40:16;;;;;;;5.93;2.13;;;;;;;;;;5038301;28;20113;-76
2023/04/04 07:42:45;;;;;;;5.90;2.60;;;;;;;;;;5054130;28;20616;-76
2023/04/04 07:45:12;;;;;;;5.40;2.17;;;;;;;;;;5047592;28;20053;-76
2023/04/04 07:47:42;;;;;;;4.72;2.50;;;;;;;;;;5033713;28;20501;-76
2023/04/04 07:50:08;;;;;;;9.15;2.78;;;;;;;;;;5051330;28;20120;-77
2023/04/04 07:52:35;;;;;;;4.18;1.92;;;;;;;;;;5049847;28;20036;-76
2023/04/04 07:55:02;;;;;;;10.90;2.42;;;;;;;;;;5051304;28;20025;-76
2023/04/04 07:57:28;;;;;;;6.97;2.22;;;;;;;;;;5031540;28;20033;-76
2023/04/04 07:59:55;;;;;;;5.97;1.85;;;;;;;;;;5037433;28;20055;-76
2023/04/04 08:02:21;;;;;;;5.43;2.13;;;;;;;;;;5035465;28;20032;-76
2023/04/04 08:04:47;;;;;;;3.90;1.52;;;;;;;;;;5050372;28;20092;-76
2023/04/04 08:07:13;;;;;;;5.65;2.25;;;;;;;;;;5048733;28;20115;-78
2023/04/04 08:09:39;;;;;;;5.72;1.92;;;;;;;;;;5049383;28;20311;-80
2023/04/04 08:12:05;;;;;;;4.40;2.10;;;;;;;;;;5050941;28;20234;-78
2023/04/04 08:14:31;;;;;;;3.47;1.70;;;;;;;;;;5034367;28;20044;-76
2023/04/04 08:16:58;;;;;;;5.72;2.28;;;;;;;;;;5029300;28;20375;-76
2023/04/04 08:19:24;;;;;;;4.00;1.75;;;;;;;;;;5047670;28;20082;-77
2023/04/04 08:21:50;;;;;;;5.00;1.70;;;;;;;;;;5050072;28;20394;-76
2023/04/04 08:24:16;;;;;;;4.97;1.83;;;;;;;;;;5045365;28;20116;-76
2023/04/04 08:26:42;;;;;;;4.32;2.03;;;;;;;;;;5017617;28;20116;-76
2023/04/04 08:29:09;;;;;;;3.95;1.88;;;;;;;;;;5047258;28;20052;-77
2023/04/04 08:31:36;;;;;;;2.47;1.58;;;;;;;;;;5032564;28;20431;-77
2023/04/04 08:34:03;;;;;;;8.30;2.00;;;;;;;;;;5048887;28;20067;-76
2023/04/04 08:36:29;;;;;;;4.03;1.65;;;;;;;;;;5050511;28;20025;-75
2023/04/04 08:38:55;;;;;;;3.35;1.63;;;;;;;;;;5041833;28;20370;-76
2023/04/04 08:41:22;;;;;;;4.35;1.88;;;;;;;;;;5047778;28;20033;-76
2023/04/04 08:43:53;;;;;;;4.03;1.95;;;;;;;;;;5050228;28;20033;-76
2023/04/04 08:46:24;;;;;;;3.17;1.65;;;;;;;;;;5049564;28;20432;-76
2023/04/04 08:48:53;;;;;;;2.03;1.48;;;;;;;;;;5049054;28;20462;-77
2023/04/04 08:51:19;;;;;;;8.65;2.33;;;;;;;;;;5048534;28;20029;-75
2023/04/04 08:53:46;;;;;;;3.10;1.58;;;;;;;;;;5066985;28;20035;-76
2023/04/04 08:56:12;;;;;;;5.80;1.77;;;;;;;;;;5045899;28;20028;-74
2023/04/04 08:58:38;;;;;;;4.65;1.95;;;;;;;;;;5041347;28;20035;-75
2023/04/04 09:01:05;;;;;;;3.33;1.80;;;;;;;;;;5035909;28;20040;-77
2023/04/04 09:03:33;;;;;;;5.90;2.00;;;;;;;;;;5035238;28;20037;-76
2023/04/04 09:06:01;;;;;;;4.13;1.60;;;;;;;;;;5030460;28;20056;-77
2023/04/04 09:08:28;;;;;;;3.78;1.60;;;;;;;;;;5040532;28;20037;-77
2023/04/04 09:10:54;;;;;;;3.90;1.92;;;;;;;;;;5040873;28;20031;-77
2023/04/04 09:13:21;;;;;;;9.40;5.43;;;;;;;;;;5034974;28;20032;-76
2023/04/04 09:15:48;;;;;;;6.72;2.47;;;;;;;;;;5028687;28;20043;-75
2023/04/04 09:18:15;;;;;;;3.97;1.90;;;;;;;;;;5043821;28;20021;-74
2023/04/04 09:20:42;;;;;;;3.83;1.70;;;;;;;;;;5048587;28;20544;-75
2023/04/04 09:23:10;;;;;;;4.68;1.70;;;;;;;;;;5021888;28;20462;-77
2023/04/04 09:25:37;;;;;;;8.35;1.65;;;;;;;;;;5029795;28;20060;-75
2023/04/04 09:28:04;;;;;;;8.02;1.85;;;;;;;;;;5047023;28;20108;-76
2023/04/04 09:30:37;;;;;;;7.63;1.60;;;;;;;;;;5044333;28;20534;-75
2023/04/04 09:33:06;;;;;;;3.42;1.65;;;;;;;;;;5046494;28;20029;-76
2023/04/04 09:35:34;;;;;;;3.53;1.55;;;;;;;;;;5044418;28;20074;-75
2023/04/04 09:38:01;;;;;;;5.15;1.67;;;;;;;;;;5026379;28;20036;-75
2023/04/04 09:40:28;;;;;;;4.40;1.60;;;;;;;;;;5045108;28;20025;-73
2023/04/04 09:42:55;;;;;;;6.93;1.80;;;;;;;;;;5044818;28;20435;-75
2023/04/04 09:45:25;;;;;;;31.58;14.15;;;;;;;;;;5045539;28;20061;-74
2023/04/04 09:47:51;;;;;;;15.70;6.60;;;;;;;;;;5049093;28;20433;-74
2023/04/04 09:50:24;;;;;;;6.88;1.80;;;;;;;;;;5045600;28;20116;-73
2023/04/04 09:52:51;;;;;;;9.45;1.77;;;;;;;;;;5042180;28;20035;-73
2023/04/04 09:55:17;;;;;;;3.17;1.58;;;;;;;;;;5054819;28;20493;-73
2023/04/04 09:57:45;;;;;;;7.55;2.35;;;;;;;;;;5029065;28;20456;-76
2023/04/04 10:00:12;;;;;;;6.25;1.63;;;;;;;;;;5050880;28;20029;-74
2023/04/04 10:02:40;;;;;;;4.78;1.83;;;;;;;;;;5027070;28;20037;-73
2023/04/04 10:05:09;;;;;;;4.22;1.75;;;;;;;;;;5047387;28;20029;-73
2023/04/04 10:07:38;;;;;;;4.80;2.08;;;;;;;;;;5047109;28;20164;-73
2023/04/04 10:10:10;;;;;;;4.35;1.55;;;;;;;;;;5047693;28;20029;-73
2023/04/04 10:12:36;;;;;;;;;;;;;;;;;;5061685;28;20029;-74
2023/04/04 10:15:02;;;;;;;6.47;1.85;;;;;;;;;;5037824;28;20409;-73
2023/04/04 10:17:37;;;;;;;8.25;4.57;;;;;;;;;;5028646;28;20053;-73
2023/04/04 10:20:10;;;;;;;4.95;2.30;;;;;;;;;;5034767;28;20423;-73
2023/04/04 10:22:37;;;;;;;3.95;2.10;;;;;;;;;;5043924;28;20041;-72
2023/04/04 10:25:04;;;;;;;7.38;2.00;;;;;;;;;;5044870;28;20056;-72
2023/04/04 10:27:31;;;;;;;3.28;1.60;;;;;;;;;;5041716;28;20037;-76
2023/04/04 10:29:57;;;;;;;6.13;2.13;;;;;;;;;;5001377;28;20025;-75
2023/04/04 10:32:33;;;;;;;4.68;2.17;;;;;;;;;;5037617;28;20030;-72
2023/04/04 10:35:03;;;;;;;4.78;2.60;;;;;;;;;;5030080;28;20497;-72
2023/04/04 10:37:32;;;;;;;6.85;2.97;;;;;;;;;;5046257;28;20029;-72
2023/04/04 10:39:59;;;;;;;6.60;2.97;;;;;;;;;;5038358;28;20026;-72
2023/04/04 10:42:25;;;;;;;4.68;2.70;;;;;;;;;;5039449;28;20051;-72
2023/04/04 10:44:52;;;;;;;4.13;2.20;;;;;;;;;;5038912;28;20045;-73
2023/04/04 10:47:20;;;;;;;4.35;2.30;;;;;;;;;;5008476;28;20049;-73
2023/04/04 10:49:48;;;;;;;6.90;2.00;;;;;;;;;;5029776;28;20037;-72
2023/04/04 10:52:19;;;;;;;5.45;2.17;;;;;;;;;;5027885;28;20030;-76
2023/04/04 10:54:46;;;;;;;12.60;5.80;;;;;;;;;;5044946;28;20036;-74
2023/04/04 10:57:13;;;;;;;5.20;3.20;;;;;;;;;;5047027;28;20034;-75
2023/04/04 10:59:58;;;;;;;5.32;2.33;;;;;;;;;;5041964;28;20410;-72
2023/04/04 11:02:44;;;;;;;6.13;2.10;;;;;;;;;;5038660;28;20488;-73
2023/04/04 11:05:31;;;;;;;5.32;2.13;;;;;;;;;;5040138;28;20030;-73
2023/04/04 11:08:01;;;;;;;5.15;2.30;;;;;;;;;;5025222;28;20482;-74
2023/04/04 11:10:29;;;;;;;4.93;1.98;;;;;;;;;;5018471;28;20122;-74
2023/04/04 11:12:56;;;;;;;3.13;2.03;;;;;;;;;;5040952;28;20094;-74
2023/04/04 11:15:23;;;;;;;4.15;2.25;;;;;;;;;;5038028;28;20382;-71
2023/04/04 11:17:51;;;;;;;7.30;2.67;;;;;;;;;;5025943;28;20053;-75
2023/04/04 11:20:18;;;;;;;5.82;2.05;;;;;;;;;;5025633;28;20026;-75
2023/04/04 11:22:47;;;;;;;4.18;1.85;;;;;;;;;;5032083;28;20037;-76
2023/04/04 11:25:29;;;;;;;5.18;2.00;;;;;;;;;;5014714;28;20036;-73
2023/04/04 11:27:56;;;;;;;5.10;1.90;;;;;;;;;;5045720;28;20081;-74
2023/04/04 11:30:22;;;;;;;3.75;1.88;;;;;;;;;;5013214;28;20549;-71
2023/04/04 11:32:49;;;;;;;4.00;2.00;;;;;;;;;;5043941;28;20497;-72
2023/04/04 11:35:15;;;;;;;6.68;2.35;;;;;;;;;;5047110;28;20032;-71
2023/04/04 11:38:02;;;;;;;3.92;1.80;;;;;;;;;;5032767;28;20056;-72
2023/04/04 11:40:41;;;;;;;4.57;1.95;;;;;;;;;;5031191;28;20025;-73
2023/04/04 11:43:10;;;;;;;3.33;1.83;;;;;;;;;;5030270;28;20554;-74
2023/04/04 11:45:37;;;;;;;4.00;1.80;;;;;;;;;;5050622;28;20562;-72
2023/04/04 11:48:05;;;;;;;7.85;1.95;;;;;;;;;;5046057;28;20033;-72
2023/04/04 11:50:35;;;;;;;3.88;1.83;;;;;;;;;;5050734;28;20037;-72
2023/04/04 11:53:04;;;;;;;5.57;2.47;;;;;;;;;;5051410;28;20071;-72
2023/04/04 11:55:31;;;;;;;5.72;2.20;;;;;;;;;;5039289;28;20116;-73
2023/04/04 11:58:04;;;;;;;5.30;2.00;;;;;;;;;;5030207;28;20478;-72
2023/04/04 12:00:35;;;;;;;4.63;1.90;;;;;;;;;;5034253;28;20493;-73
2023/04/04 12:03:03;;;;;;;4.38;2.00;;;;;;;;;;5048441;28;20039;-73
2023/04/04 12:05:29;;;;;;;4.63;1.85;;;;;;;;;;5049333;28;20497;-73
2023/04/04 12:07:56;;;;;;;5.40;2.28;;;;;;;;;;5042540;28;20355;-73
2023/04/04 12:10:22;;;;;;;7.55;2.20;;;;;;;;;;5050126;28;20029;-72
2023/04/04 12:12:49;;;;;;;4.72;1.98;;;;;;;;;;5034418;28;20033;-75
2023/04/04 12:15:15;;;;;;;8.07;2.33;;;;;;;;;;5051543;28;20033;-71
2023/04/04 12:17:43;;;;;;;7.47;2.20;;;;;;;;;;5033281;28;20032;-74
2023/04/04 12:20:10;;;;;;;6.53;2.60;;;;;;;;;;5042970;28;20082;-72
2023/04/04 12:22:37;;;;;;;6.80;2.53;;;;;;;;;;5025484;28;20029;-72
2023/04/04 12:25:05;;;;;;;4.22;2.30;;;;;;;;;;5037051;28;20458;-72
2023/04/04 12:27:31;;;;;;;7.32;2.45;;;;;;;;;;5022781;28;20028;-75
2023/04/04 12:29:58;;;;;;;6.18;2.67;;;;;;;;;;5050374;28;20063;-72
2023/04/04 12:32:24;;;;;;;9.25;2.50;;;;;;;;;;5048938;28;20025;-71
2023/04/04 12:34:50;;;;;;;5.95;2.15;;;;;;;;;;5032554;28;20115;-73
2023/04/04 12:37:18;;;;;;;4.18;2.42;;;;;;;;;;5049246;28;20029;-72
2023/04/04 12:39:51;;;;;;;4.55;1.95;;;;;;;;;;5046039;28;20099;-76
2023/04/04 12:42:24;;;;;;;4.53;2.22;;;;;;;;;;5037886;28;20091;-73
2023/04/04 12:44:51;;;;;;;6.88;2.47;;;;;;;;;;5046209;28;20472;-73
2023/04/04 12:47:19;;;;;;;6.32;2.55;;;;;;;;;;5060566;28;20048;-72
2023/04/04 12:49:49;;;;;;;10.88;4.25;;;;;;;;;;5039730;28;20116;-72
2023/04/04 12:52:22;;;;;;;6.50;2.70;;;;;;;;;;5058001;28;20056;-73
2023/04/04 12:54:50;;;;;;;3.78;2.20;;;;;;;;;;5033962;28;20075;-73
2023/04/04 12:57:28;;;;;;;5.78;2.67;;;;;;;;;;5064527;28;20024;-73
2023/04/04 13:00:01;;;;;;;5.78;2.55;;;;;;;;;;5054533;28;20039;-74
2023/04/04 13:02:28;;;;;;;4.80;2.45;;;;;;;;;;5068326;28;20032;-76
2023/04/04 13:04:55;;;;;;;4.25;2.70;;;;;;;;;;5048944;28;20032;-73
2023/04/04 13:07:21;;;;;;;5.65;2.25;;;;;;;;;;5051979;28;20020;-74
2023/04/04 13:09:51;;;;;;;8.13;2.50;;;;;;;;;;5052598;28;20021;-74
2023/04/04 13:12:18;;;;;;;7.15;2.40;;;;;;;;;;5053189;28;20022;-73
2023/04/04 13:14:57;;;;;;;4.18;3.00;;;;;;;;;;5044001;28;20384;-73
2023/04/04 13:17:25;;;;;;;3.13;2.08;;;;;;;;;;5051546;28;20073;-72
2023/04/04 13:19:51;;;;;;;5.05;2.35;;;;;;;;;;5050778;28;20427;-73
2023/04/04 13:22:17;;;;;;;5.28;2.20;;;;;;;;;;5036658;28;20032;-72
2023/04/04 13:24:43;;;;;;;4.90;2.50;;;;;;;;;;5018492;28;20128;-73
2023/04/04 13:27:10;;;;;;;5.68;2.42;;;;;;;;;;5047922;28;20031;-73
2023/04/04 13:29:36;;;;;;;3.70;2.15;;;;;;;;;;5032446;28;20033;-74
2023/04/04 13:32:03;;;;;;;5.70;2.65;;;;;;;;;;5052707;28;20037;-73
2023/04/04 13:34:30;;;;;;;4.05;2.22;;;;;;;;;;5032735;28;20044;-72
2023/04/04 13:36:56;;;;;;;5.68;2.35;;;;;;;;;;5050651;28;20466;-74
2023/04/04 13:39:22;;;;;;;5.05;2.25;;;;;;;;;;5035403;28;20393;-73
2023/04/04 13:41:49;;;;;;;5.00;2.55;;;;;;;;;;5049215;28;20453;-72
2023/04/04 13:44:15;;;;;;;5.25;2.67;;;;;;;;;;5047989;28;20477;-75
2023/04/04 13:46:42;;;;;;;6.65;2.35;;;;;;;;;;5047826;28;20070;-73
2023/04/04 13:49:09;;;;;;;7.10;2.72;;;;;;;;;;5050773;28;20416;-75
2023/04/04 13:51:36;;;;;;;5.32;2.35;;;;;;;;;;5053670;28;20469;-73
2023/04/04 13:54:02;;;;;;;6.03;2.80;;;;;;;;;;5024067;28;20028;-73
2023/04/04 13:56:28;;;;;;;6.97;2.45;;;;;;;;;;5034246;28;20041;-75
2023/04/04 13:58:54;;;;;;;4.15;2.30;;;;;;;;;;5052046;28;20035;-73
2023/04/04 14:01:21;;;;;;;5.88;2.55;;;;;;;;;;5042731;28;20065;-74
2023/04/04 14:03:47;;;;;;;5.32;2.95;;;;;;;;;;5052018;28;20063;-78
2023/04/04 14:06:15;;;;;;;6.57;2.90;;;;;;;;;;5050630;28;20082;-73
2023/04/04 14:08:41;;;;;;;8.77;2.85;;;;;;;;;;5052375;28;20036;-73
2023/04/04 14:11:07;;;;;;;4.15;2.63;;;;;;;;;;5037383;28;20488;-74
2023/04/04 14:13:33;;;;;;;7.38;2.75;;;;;;;;;;5033054;28;20064;-73
2023/04/04 14:15:59;;;;;;;4.13;2.25;;;;;;;;;;5038817;28;20042;-73
2023/04/04 14:18:27;;;;;;;5.35;2.90;;;;;;;;;;5052575;28;20021;-72
2023/04/04 14:20:53;;;;;;;5.32;2.38;;;;;;;;;;5037582;28;20056;-72
2023/04/04 14:23:20;;;;;;;5.32;2.20;;;;;;;;;;5055542;28;20029;-73
2023/04/04 14:25:49;;;;;;;7.95;2.75;;;;;;;;;;5038811;28;20060;-72
2023/04/04 14:28:15;;;;;;;3.63;2.05;;;;;;;;;;5055803;28;20025;-73
2023/04/04 14:30:41;;;;;;;8.35;2.83;;;;;;;;;;5038149;28;20045;-73
2023/04/04 14:33:07;;;;;;;4.40;2.53;;;;;;;;;;5046771;28;20161;-74
2023/04/04 14:35:34;;;;;;;5.28;2.80;;;;;;;;;;5039876;28;20035;-73
2023/04/04 14:38:00;;;;;;;8.70;2.85;;;;;;;;;;5055761;28;20027;-75
2023/04/04 14:40:27;;;;;;;5.07;2.63;;;;;;;;;;5036998;28;20021;-76
2023/04/04 14:42:54;;;;;;;5.95;2.95;;;;;;;;;;5054784;28;20039;-74
2023/04/04 14:45:20;;;;;;;5.75;2.72;;;;;;;;;;5034485;28;20057;-72
2023/04/04 14:47:46;;;;;;;4.55;2.40;;;;;;;;;;5049871;28;20120;-73
2023/04/04 14:50:12;;;;;;;5.07;2.50;;;;;;;;;;5032990;28;20065;-73
2023/04/04 14:52:38;;;;;;;4.88;2.90;;;;;;;;;;5032949;28;20029;-75
2023/04/04 14:55:04;;;;;;;5.60;2.60;;;;;;;;;;5051260;28;20099;-73
2023/04/04 14:57:31;;;;;;;6.68;3.67;;;;;;;;;;5049533;28;20387;-72
2023/04/04 14:59:57;;;;;;;4.47;2.42;;;;;;;;;;5049923;28;20021;-73
2023/04/04 15:02:23;;;;;;;5.20;2.42;;;;;;;;;;5050668;28;20469;-75
2023/04/04 15:04:49;;;;;;;4.35;2.58;;;;;;;;;;5038600;28;20440;-74
2023/04/04 15:07:16;;;;;;;5.57;2.67;;;;;;;;;;5052090;28;20082;-73